Accueil
METAR-TAF:

METAR-TAF

Aéroports :

Asahikawa, Japon

latitude: 43-40N, longitude: 142-27E, altitude: 208 m

Observation

Le bulletin a été fait il y a 31 minutes, à 22:00 UTC
Vent 8 kt de sud-ouest
Température 4°C
Humidité 52%
Pression 1013 hPa
Visibilité 10 km ou plus
Quelques nuages à une hauteur de 4000 ft

METAR: RJEC 202200Z 22008KT 9999 FEW040 04/M05 Q1013

Heure: 07:31 (22:31 UTC)

Prévision

Le bulletin a été fait il y a 2 heures et 2 minutes, à 20:29 UTC
Prévision valable du 20 à 20 UTC au 22 à 00 UTC
Vent 7 kt de sud
Visibilité 10 km ou plus
Quelques nuages à une hauteur de 2000 ft
Nuages fragmentés à une hauteur de 4000 ft
Evoluant progressivement
du 20 à 22 UTC au 21 à 00 UTC
Vent 18 kt de ouest/nord-ouest
Temporairement
du 21 à 00 UTC au 21 à 09 UTC
Vent 22 kt de ouest/nord-ouest avec des rafales jusqu'à 32 kt

TAF: RJEC 202029Z 2020/2200 18007KT 9999 FEW020 BKN040 BECMG 2022/2100 30018KT TEMPO 2100/2109 30022G32KT

Observations et prévisions météorologiques de plus de 4000 aéroports (messages METAR et TAF).

Les stations disponibles sont représentées par des disques jaunes et rouges sur la carte.

Passer la souris dessus pour voir le nom de la station.

Cliquer dessus pour voir les observations et prévisions météorologiques.

Pour changer de carte: cliquez sur les boutons verts avec une croix noire pour zoomer, sur le bouton vert avec un tiret pour effectuer un zoom arrière, ou sur les flèches vertes pour les cartes adjacentes.


METAR-TAF: